Coal Mine Mesa, Arizona
Current Conditions -  °F | °C
As of 12:54 AM on Saturday 20 Dec 2014 (Local Time) from KGCN Reporting Station
Few Clouds Few Clouds  
Wind Chill: 27°   Ceiling: Unl
Heat Index: 27°   Visibility: 10mi
Dew Point: 24°   Wind: 3mph
Humidity: 89%   Direction: 60°ENE
Pressure: 30.19"   Gusts: NA
Location:  35.9808°N, 111.359°W
Report Text: KGCN 200754Z 06003KT 10SM FEW120 M03/M04 A3019 RMK AO2 SLP211 T10281044
Loading
Personal Weather Stations






























Interactive Weather Map New forecast layout! Learn more

10-Day Weather Forecast

Advertisements
Track Severe Weather on mobile